Time;durP1;ratioP1;P1;durP2;ratioP2;P2;SDS_P1;SDS_P2;PMS_P1;PMS_P2;Temp;Humidity;BMP_temperature;BMP_pressure;BME280_temperature;BME280_humidity;BME280_pressure;Samples;Min_cycle;Max_cycle;Signal;HPM_P1;HPM_P2
2023/06/14 00:02:20;;;;;;;7.10;6.67;;;18.70;10.70;;;;;;4966766;28;20482;-83
2023/06/14 00:04:51;;;;;;;7.63;7.23;;;18.60;10.90;;;;;;4980320;28;20459;-80
2023/06/14 00:07:34;;;;;;;7.73;7.33;;;18.50;10.10;;;;;;4983337;28;20478;-83
2023/06/14 00:10:02;;;;;;;7.90;7.40;;;18.60;10.20;;;;;;4984171;28;20447;-83
2023/06/14 00:12:30;;;;;;;8.43;7.80;;;18.60;10.20;;;;;;4981797;28;20466;-83
2023/06/14 00:15:01;;;;;;;7.57;7.07;;;18.50;10.40;;;;;;4985377;28;20451;-86
2023/06/14 00:17:31;;;;;;;8.23;7.73;;;18.50;10.70;;;;;;4970611;28;21027;-84
2023/06/14 00:20:00;;;;;;;7.13;6.83;;;18.40;11.50;;;;;;4988131;28;20972;-83
2023/06/14 00:22:30;;;;;;;7.73;7.37;;;18.40;10.80;;;;;;4984243;28;20540;-84
2023/06/14 00:24:59;;;;;;;7.60;7.30;;;18.30;10.50;;;;;;4985790;28;20451;-83
2023/06/14 00:27:35;;;;;;;7.60;7.20;;;18.30;10.90;;;;;;4982582;28;20482;-86
2023/06/14 00:30:03;;;;;;;8.87;8.30;;;18.40;11.00;;;;;;4983496;28;20474;-82
2023/06/14 00:32:31;;;;;;;8.27;7.77;;;18.30;10.90;;;;;;4985092;28;20453;-85
2023/06/14 00:34:59;;;;;;;8.07;7.47;;;18.20;11.20;;;;;;4966762;28;21821;-82
2023/06/14 00:37:29;;;;;;;7.57;7.17;;;18.20;10.10;;;;;;4983240;28;20474;-85
2023/06/14 00:39:57;;;;;;;6.93;6.57;;;18.20;10.40;;;;;;4985705;28;20459;-83
2023/06/14 00:42:26;;;;;;;8.60;8.10;;;18.20;10.40;;;;;;4981386;28;20478;-83
2023/06/14 00:44:55;;;;;;;8.43;7.40;;;18.20;9.90;;;;;;4988904;28;20455;-82
2023/06/14 00:47:23;;;;;;;7.97;7.20;;;18.20;11.30;;;;;;4981968;28;20475;-80
2023/06/14 00:49:52;;;;;;;8.03;7.53;;;18.20;11.70;;;;;;4981349;28;20578;-83
2023/06/14 00:52:21;;;;;;;7.67;7.27;;;18.20;11.30;;;;;;4963806;28;20447;-81
2023/06/14 00:54:50;;;;;;;7.70;7.40;;;18.10;11.10;;;;;;4978625;28;20457;-82
2023/06/14 00:57:18;;;;;;;8.90;8.40;;;18.20;12.60;;;;;;4982435;28;20469;-81
2023/06/14 00:59:49;;;;;;;8.20;7.80;;;18.10;12.10;;;;;;4984122;28;20466;-82
2023/06/14 01:02:18;;;;;;;8.57;8.07;;;18.00;11.40;;;;;;4981799;28;20478;-82
2023/06/14 01:04:49;;;;;;;7.80;7.50;;;17.90;11.00;;;;;;4979889;28;20462;-84
2023/06/14 01:07:26;;;;;;;8.37;7.87;;;17.80;10.60;;;;;;4982110;28;20477;-83
2023/06/14 01:10:13;;;;;;;8.83;8.33;;;17.80;10.60;;;;;;4981179;28;20457;-83
2023/06/14 01:12:53;;;;;;;8.40;7.90;;;17.70;10.20;;;;;;4979627;28;20477;-85
2023/06/14 01:15:22;;;;;;;9.03;8.43;;;17.80;10.00;;;;;;4982210;28;20468;-84
2023/06/14 01:17:53;;;;;;;8.03;7.60;;;17.70;10.00;;;;;;4985976;28;20473;-84
2023/06/14 01:20:29;;;;;;;8.17;7.67;;;17.70;11.10;;;;;;4984413;28;20453;-83
2023/06/14 01:22:59;;;;;;;7.90;7.40;;;17.70;10.60;;;;;;4984369;28;20466;-83
2023/06/14 01:25:28;;;;;;;7.67;7.27;;;17.70;10.50;;;;;;4982482;28;20959;-83
2023/06/14 01:28:01;;;;;;;8.87;8.27;;;17.70;10.40;;;;;;4977979;28;20485;-83
2023/06/14 01:30:33;;;;;;;7.70;7.30;;;17.60;10.60;;;;;;4980947;28;20469;-83
2023/06/14 01:33:01;;;;;;;8.20;7.77;;;17.60;11.00;;;;;;4983351;28;20450;-85
2023/06/14 01:35:30;;;;;;;7.50;7.20;;;17.50;10.90;;;;;;4986278;28;20460;-83
2023/06/14 01:38:01;;;;;;;8.27;7.87;;;17.50;11.40;;;;;;4983918;28;20494;-83
2023/06/14 01:40:30;;;;;;;7.90;7.50;;;17.50;10.60;;;;;;4984973;28;20465;-83
2023/06/14 01:42:58;;;;;;;8.53;8.03;;;17.40;9.60;;;;;;4983027;28;20556;-83
2023/06/14 01:45:27;;;;;;;8.40;8.00;;;17.40;9.80;;;;;;4979501;28;20478;-84
2023/06/14 01:47:56;;;;;;;8.00;7.60;;;17.30;9.70;;;;;;4985093;28;20489;-84
2023/06/14 01:50:24;;;;;;;8.30;7.77;;;17.30;10.90;;;;;;4983656;28;20453;-87
2023/06/14 01:52:52;;;;;;;7.10;6.80;;;17.40;11.20;;;;;;4977339;28;20470;-83
2023/06/14 01:55:21;;;;;;;8.87;8.27;;;17.30;11.20;;;;;;4981651;28;20451;-84
2023/06/14 01:57:49;;;;;;;8.83;8.23;;;17.20;9.70;;;;;;4984153;28;21079;-83
2023/06/14 02:00:18;;;;;;;9.00;8.50;;;17.10;9.20;;;;;;4983527;28;20533;-83
2023/06/14 02:02:46;;;;;;;8.00;7.60;;;17.00;8.90;;;;;;4984385;28;20541;-83
2023/06/14 02:05:15;;;;;;;8.70;8.20;;;17.00;20.10;;;;;;4985142;28;20481;-82
2023/06/14 02:07:43;;;;;;;8.40;8.00;;;17.00;9.40;;;;;;4961616;28;21051;-86
2023/06/14 02:10:11;;;;;;;8.43;7.93;;;17.10;11.00;;;;;;4984111;28;20461;-85
2023/06/14 02:12:41;;;;;;;8.00;7.60;;;17.00;10.30;;;;;;4981407;28;20461;-84
2023/06/14 02:15:16;;;;;;;8.20;7.80;;;17.00;10.20;;;;;;4978099;28;20476;-84
2023/06/14 02:17:46;;;;;;;8.80;8.40;;;17.00;10.50;;;;;;4984871;28;21094;-82
2023/06/14 02:20:15;;;;;;;7.80;7.40;;;16.90;10.10;;;;;;4978308;28;21018;-82
2023/06/14 02:22:43;;;;;;;8.00;7.50;;;16.90;9.40;;;;;;4982621;28;20548;-87
2023/06/14 02:25:11;;;;;;;8.20;7.60;;;16.80;10.10;;;;;;4981784;28;20469;-83
2023/06/14 02:27:41;;;;;;;7.90;7.40;;;16.80;10.60;;;;;;4982964;28;20501;-86
2023/06/14 02:30:10;;;;;;;7.60;7.20;;;16.90;10.80;;;;;;4979062;28;20470;-85
2023/06/14 02:32:40;;;;;;;7.77;7.37;;;16.80;9.90;;;;;;4984130;28;20454;-86
2023/06/14 02:35:09;;;;;;;8.00;7.50;;;16.80;10.90;;;;;;4978953;28;20466;-83
2023/06/14 02:37:37;;;;;;;7.97;7.47;;;16.70;10.70;;;;;;4985463;28;20466;-82
2023/06/14 02:40:08;;;;;;;7.83;7.40;;;16.70;11.60;;;;;;4983502;28;20462;-81
2023/06/14 02:42:37;;;;;;;7.70;7.30;;;16.80;19.40;;;;;;4983832;28;20560;-83
2023/06/14 02:45:08;;;;;;;8.10;7.60;;;16.80;12.60;;;;;;4988316;28;20982;-86
2023/06/14 02:47:36;;;;;;;7.73;7.33;;;16.70;12.30;;;;;;4987920;28;20477;-83
2023/06/14 02:50:05;;;;;;;7.83;7.43;;;16.70;12.50;;;;;;4986076;28;20463;-83
2023/06/14 02:52:33;;;;;;;7.80;7.40;;;16.80;13.00;;;;;;4988338;28;20442;-83
2023/06/14 02:55:01;;;;;;;8.00;7.50;;;16.70;13.70;;;;;;4985778;28;20549;-82
2023/06/14 02:57:29;;;;;;;8.40;8.00;;;16.70;13.50;;;;;;4984000;28;20478;-79
2023/06/14 02:59:57;;;;;;;8.10;7.70;;;16.60;13.90;;;;;;4984717;28;21082;-83
2023/06/14 03:02:26;;;;;;;7.80;7.40;;;16.60;14.40;;;;;;4979616;28;20471;-81
2023/06/14 03:04:55;;;;;;;8.33;7.83;;;16.60;14.80;;;;;;4987308;28;20508;-84
2023/06/14 03:07:25;;;;;;;7.90;7.50;;;16.60;15.40;;;;;;4968168;28;20481;-80
2023/06/14 03:09:53;;;;;;;7.97;7.57;;;16.50;14.40;;;;;;4983006;28;20450;-81
2023/06/14 03:12:21;;;;;;;8.63;7.93;;;16.50;14.50;;;;;;4986491;28;20856;-83
2023/06/14 03:14:50;;;;;;;8.33;7.83;;;16.50;13.90;;;;;;4986798;28;20942;-84
2023/06/14 03:17:19;;;;;;;8.57;8.07;;;16.50;14.20;;;;;;4984897;28;20493;-82
2023/06/14 03:19:48;;;;;;;8.37;7.87;;;16.50;14.20;;;;;;4987594;28;20980;-84
2023/06/14 03:22:17;;;;;;;8.70;8.20;;;16.40;13.30;;;;;;4970909;28;20453;-85
2023/06/14 03:24:45;;;;;;;8.73;8.23;;;16.40;13.90;;;;;;4969393;28;20521;-81
2023/06/14 03:27:14;;;;;;;8.83;8.43;;;16.40;14.30;;;;;;4986121;28;20450;-85
2023/06/14 03:29:42;;;;;;;8.60;8.03;;;16.30;14.00;;;;;;4980771;28;20627;-84
2023/06/14 03:32:10;;;;;;;9.27;8.47;;;16.20;13.80;;;;;;4980778;28;20474;-84
2023/06/14 03:34:39;;;;;;;8.90;8.40;;;16.30;14.70;;;;;;4983703;28;20465;-84
2023/06/14 03:37:09;;;;;;;8.70;8.20;;;16.30;15.50;;;;;;4982496;28;20465;-84
2023/06/14 03:39:37;;;;;;;8.80;8.30;;;16.30;16.60;;;;;;4982616;28;20517;-84
2023/06/14 03:42:06;;;;;;;9.43;8.83;;;16.30;16.60;;;;;;4966712;28;20490;-84
2023/06/14 03:44:35;;;;;;;8.73;8.30;;;16.30;16.50;;;;;;4983399;28;20489;-86
2023/06/14 03:47:03;;;;;;;9.37;8.63;;;16.30;17.50;;;;;;4977848;28;20470;-83
2023/06/14 03:49:31;;;;;;;8.77;8.10;;;16.20;16.70;;;;;;4980555;28;20489;-82
2023/06/14 03:51:59;;;;;;;9.33;8.80;;;16.20;17.60;;;;;;4977374;28;21342;-85
2023/06/14 03:54:29;;;;;;;9.53;8.77;;;16.20;18.80;;;;;;4983606;28;20457;-84
2023/06/14 03:57:17;;;;;;;9.27;8.70;;;16.20;19.40;;;;;;4985561;28;20496;-81
2023/06/14 03:59:46;;;;;;;8.90;8.13;;;16.20;19.80;;;;;;4983348;28;20595;-85
2023/06/14 04:02:15;;;;;;;8.60;8.20;;;16.20;19.60;;;;;;4979438;28;20459;-82
2023/06/14 04:04:45;;;;;;;9.97;9.37;;;16.20;19.80;;;;;;4983577;28;20486;-81
2023/06/14 04:07:13;;;;;;;9.50;8.70;;;16.20;21.00;;;;;;4979989;28;20467;-81
2023/06/14 04:09:43;;;;;;;10.50;9.80;;;16.20;21.80;;;;;;4987682;28;20454;-82
2023/06/14 04:12:12;;;;;;;10.03;9.43;;;16.10;22.50;;;;;;4986421;28;20265;-83
2023/06/14 04:14:40;;;;;;;9.87;9.27;;;16.20;22.80;;;;;;4984373;28;20455;-82
2023/06/14 04:17:08;;;;;;;9.90;9.40;;;16.30;23.50;;;;;;4986387;28;20459;-82
2023/06/14 04:19:36;;;;;;;9.80;9.20;;;16.30;24.10;;;;;;4984687;28;20465;-82
2023/06/14 04:22:05;;;;;;;9.90;9.47;;;16.40;25.40;;;;;;4984069;28;20470;-82
2023/06/14 04:24:34;;;;;;;10.93;10.20;;;16.40;25.50;;;;;;4982505;28;20484;-84
2023/06/14 04:27:06;;;;;;;10.77;10.17;;;16.40;25.60;;;;;;4982369;28;20548;-82
2023/06/14 04:29:34;;;;;;;10.67;10.00;;;16.30;24.90;;;;;;4982912;28;20829;-85
2023/06/14 04:32:05;;;;;;;10.70;10.10;;;16.30;25.70;;;;;;4984965;28;20472;-83
2023/06/14 04:34:34;;;;;;;12.30;11.20;;;16.30;26.40;;;;;;4980527;28;20977;-83
2023/06/14 04:37:02;;;;;;;10.57;9.90;;;16.30;25.60;;;;;;4982660;28;20470;-83
2023/06/14 04:39:30;;;;;;;11.17;10.30;;;16.40;26.10;;;;;;4980620;28;22201;-82
2023/06/14 04:42:00;;;;;;;10.90;10.30;;;16.40;26.60;;;;;;4982039;28;20457;-84
2023/06/14 04:44:31;;;;;;;11.10;10.27;;;16.50;27.10;;;;;;4980660;28;20473;-82
2023/06/14 04:47:00;;;;;;;11.17;10.43;;;16.50;26.30;;;;;;4976455;28;20458;-83
2023/06/14 04:49:32;;;;;;;11.63;10.93;;;16.50;27.20;;;;;;4982649;28;20490;-81
2023/06/14 04:52:01;;;;;;;11.10;10.50;;;16.50;27.20;;;;;;4984273;28;20473;-81
2023/06/14 04:54:31;;;;;;;10.70;10.00;;;16.60;27.20;;;;;;4985627;28;20466;-82
2023/06/14 04:56:59;;;;;;;11.23;10.50;;;16.50;26.20;;;;;;4978744;28;20449;-81
2023/06/14 04:59:33;;;;;;;11.20;10.40;;;16.50;25.80;;;;;;4980740;28;20463;-83
2023/06/14 05:02:01;;;;;;;11.63;10.80;;;16.60;26.00;;;;;;4983218;28;20461;-82
2023/06/14 05:04:29;;;;;;;12.33;11.23;;;16.50;26.10;;;;;;4981748;28;20504;-83
2023/06/14 05:06:57;;;;;;;10.60;10.00;;;16.50;25.90;;;;;;4954135;28;20488;-83
2023/06/14 05:09:25;;;;;;;11.10;10.40;;;16.60;25.90;;;;;;4981827;28;20458;-82
2023/06/14 05:11:53;;;;;;;11.70;10.70;;;16.60;25.00;;;;;;4977244;28;20465;-83
2023/06/14 05:14:22;;;;;;;11.50;10.80;;;16.60;26.00;;;;;;4981086;28;20454;-85
2023/06/14 05:16:51;;;;;;;12.67;11.87;;;16.70;27.00;;;;;;4979572;28;20451;-82
2023/06/14 05:19:22;;;;;;;11.23;10.60;;;16.80;29.00;;;;;;4977925;28;20474;-80
2023/06/14 05:33:57;;;;;;;11.77;11.07;;;17.00;28.70;;;;;;4853288;29;20513;-81
2023/06/14 05:36:25;;;;;;;11.67;10.63;;;17.10;29.70;;;;;;4886647;29;20473;-81
2023/06/14 05:41:43;;;;;;;11.27;10.57;;;17.20;30.70;;;;;;4974919;28;21291;-81
2023/06/14 05:44:14;;;;;;;11.30;10.70;;;17.30;31.50;;;;;;4976637;28;20471;-81
2023/06/14 05:50:45;;;;;;;11.30;10.50;;;17.40;34.90;;;;;;4972375;28;20501;-83
2023/06/14 05:53:46;;;;;;;10.10;9.50;;;17.50;35.20;;;;;;4970014;28;20541;-81
2023/06/14 05:56:15;;;;;;;10.43;9.90;;;17.70;36.40;;;;;;4972938;28;20459;-81
2023/06/14 05:58:45;;;;;;;10.50;9.90;;;17.80;36.20;;;;;;4973084;28;20475;-83
2023/06/14 06:01:44;;;;;;;10.30;9.70;;;17.90;36.10;;;;;;4966311;28;21318;-81
2023/06/14 06:04:25;;;;;;;9.73;9.33;;;17.90;36.70;;;;;;4977184;28;20476;-80
2023/06/14 06:06:54;;;;;;;10.83;10.27;;;18.00;37.40;;;;;;4975956;28;20528;-81
2023/06/14 06:13:50;;;;;;;10.07;9.60;;;18.10;37.30;;;;;;4896983;29;21554;-81
2023/06/14 06:16:58;;;;;;;;;;;;;;;;;;;;;
2023/06/14 06:19:40;;;;;;;9.90;9.40;;;18.20;37.50;;;;;;4969148;28;20956;-81
2023/06/14 06:22:08;;;;;;;10.50;9.80;;;18.30;38.90;;;;;;4966454;28;20585;-82
2023/06/14 06:25:31;;;;;;;9.60;9.10;;;18.40;38.20;;;;;;4973164;28;20479;-82
2023/06/14 06:28:04;;;;;;;9.63;9.20;;;18.40;36.70;;;;;;4927927;28;20474;-82
2023/06/14 06:30:34;;;;;;;10.27;9.60;;;18.50;37.40;;;;;;4974986;28;20505;-82
2023/06/14 06:33:24;;;;;;;9.80;9.40;;;18.40;36.30;;;;;;4958228;28;20597;-82
2023/06/14 06:36:35;;;;;;;9.20;8.80;;;18.40;35.20;;;;;;4971572;28;20524;-82
2023/06/14 06:39:15;;;;;;;10.23;9.73;;;18.50;37.10;;;;;;4971933;28;20819;-82
2023/06/14 06:41:46;;;;;;;9.40;9.00;;;18.60;38.80;;;;;;4968767;28;21227;-82
2023/06/14 06:44:52;;;;;;;9.43;8.93;;;18.70;39.50;;;;;;4970495;28;20894;-83
2023/06/14 06:48:23;;;;;;;10.10;9.50;;;18.70;39.70;;;;;;4960844;28;20613;-83
2023/06/14 06:51:32;;;;;;;9.60;9.00;;;18.80;38.80;;;;;;4971304;28;20502;-82
2023/06/14 06:54:34;;;;;;;9.40;9.00;;;18.90;38.30;;;;;;4972924;28;21207;-82
2023/06/14 07:17:31;;;;;;;9.20;8.70;;;19.50;41.90;;;;;;4880483;29;20470;-80
2023/06/14 07:20:00;;;;;;;8.80;8.40;;;19.60;45.00;;;;;;4883846;29;20529;-82
2023/06/14 07:22:28;;;;;;;9.73;8.90;;;19.60;43.50;;;;;;4882165;29;20473;-82
2023/06/14 07:24:57;;;;;;;8.37;7.93;;;19.60;44.60;;;;;;4958718;28;20548;-81
2023/06/14 07:27:25;;;;;;;8.47;7.97;;;19.70;40.90;;;;;;4969895;28;21195;-81
2023/06/14 07:29:53;;;;;;;8.17;7.67;;;19.80;41.10;;;;;;4970367;28;20458;-81
2023/06/14 07:32:22;;;;;;;7.50;7.20;;;19.90;39.60;;;;;;4972465;28;20451;-81
2023/06/14 07:34:51;;;;;;;9.43;8.63;;;19.90;40.60;;;;;;4953734;28;20450;-83
2023/06/14 07:37:19;;;;;;;8.43;7.97;;;20.00;43.10;;;;;;4972965;28;20573;-82
2023/06/14 07:39:47;;;;;;;8.53;8.13;;;20.00;44.70;;;;;;4968251;28;20558;-81
2023/06/14 07:42:15;;;;;;;8.90;8.23;;;20.10;46.60;;;;;;4972214;28;20569;-81
2023/06/14 07:44:43;;;;;;;8.83;8.33;;;20.20;46.00;;;;;;4975547;28;20454;-81
2023/06/14 07:47:11;;;;;;;8.03;7.70;;;20.20;46.70;;;;;;4969695;28;20463;-81
2023/06/14 07:49:41;;;;;;;8.80;8.40;;;20.30;45.50;;;;;;4971027;28;20561;-81
2023/06/14 07:52:09;;;;;;;8.23;7.93;;;20.30;46.70;;;;;;4938807;28;20468;-81
2023/06/14 07:54:38;;;;;;;8.83;8.43;;;20.30;48.30;;;;;;4969276;28;20538;-81
2023/06/14 07:57:06;;;;;;;9.70;9.10;;;20.40;48.30;;;;;;4969619;28;20719;-82
2023/06/14 07:59:35;;;;;;;9.50;9.10;;;20.50;49.70;;;;;;4967796;28;20467;-82
2023/06/14 08:02:03;;;;;;;8.90;8.40;;;20.50;49.40;;;;;;4970217;28;20549;-82
2023/06/14 08:04:32;;;;;;;8.57;8.17;;;20.60;51.00;;;;;;4970481;28;20459;-81
2023/06/14 08:07:02;;;;;;;9.27;8.83;;;20.70;53.30;;;;;;4971784;28;20499;-81
2023/06/14 08:09:32;;;;;;;9.80;9.20;;;20.80;53.90;;;;;;4971088;28;20459;-82
2023/06/14 08:12:00;;;;;;;9.63;9.20;;;20.80;53.80;;;;;;4969665;28;20473;-82
2023/06/14 08:14:29;;;;;;;10.10;9.20;;;20.80;55.30;;;;;;4955470;28;20455;-81
2023/06/14 08:16:57;;;;;;;10.30;9.80;;;20.80;54.70;;;;;;4955729;28;21051;-81
2023/06/14 08:19:25;;;;;;;9.93;9.33;;;20.90;55.10;;;;;;4967588;28;20478;-81
2023/06/14 08:21:54;;;;;;;10.00;9.30;;;20.90;55.50;;;;;;4968471;28;20462;-82
2023/06/14 08:24:24;;;;;;;10.40;9.80;;;21.00;55.10;;;;;;4969086;28;20903;-82
2023/06/14 08:26:53;;;;;;;9.57;9.07;;;21.00;55.70;;;;;;4972286;28;20489;-80
2023/06/14 08:29:21;;;;;;;9.50;9.00;;;21.00;58.50;;;;;;4954790;28;20544;-81
2023/06/14 08:31:49;;;;;;;11.33;10.17;;;21.10;57.60;;;;;;4969525;28;20543;-82
2023/06/14 08:34:17;;;;;;;11.00;10.00;;;21.10;58.30;;;;;;4970686;28;20495;-81
2023/06/14 08:36:45;;;;;;;10.37;9.70;;;21.20;57.50;;;;;;4970462;28;20459;-81
2023/06/14 08:39:14;;;;;;;10.83;9.73;;;21.30;59.10;;;;;;4952066;28;20912;-81
2023/06/14 08:41:46;;;;;;;10.47;9.87;;;21.30;60.10;;;;;;4970311;28;20463;-81
2023/06/14 08:44:15;;;;;;;10.83;10.13;;;21.40;61.50;;;;;;4970897;28;20469;-81
2023/06/14 08:46:44;;;;;;;10.87;10.20;;;21.50;62.30;;;;;;4972271;28;20574;-81
2023/06/14 08:49:13;;;;;;;10.67;10.07;;;21.40;58.30;;;;;;4969778;28;20507;-82
2023/06/14 08:51:43;;;;;;;10.30;9.50;;;21.50;59.80;;;;;;4969311;28;20465;-82
2023/06/14 08:54:12;;;;;;;10.23;9.63;;;21.60;61.60;;;;;;4970336;28;20453;-82
2023/06/14 08:56:43;;;;;;;10.00;9.50;;;21.60;62.00;;;;;;4969678;28;20550;-81
2023/06/14 08:59:12;;;;;;;10.33;9.83;;;21.60;59.40;;;;;;4967617;28;20759;-81
2023/06/14 09:01:41;;;;;;;10.70;10.03;;;21.70;61.10;;;;;;4969338;28;20551;-82
2023/06/14 09:04:23;;;;;;;9.70;9.30;;;21.70;62.30;;;;;;4971259;28;20450;-82
2023/06/14 09:06:52;;;;;;;9.87;9.20;;;21.80;61.40;;;;;;4968356;28;20501;-81
2023/06/14 09:09:22;;;;;;;10.37;9.77;;;21.80;61.90;;;;;;4969533;28;21548;-81
2023/06/14 09:11:52;;;;;;;11.07;10.27;;;21.90;61.90;;;;;;4970342;28;20447;-83
2023/06/14 09:14:24;;;;;;;10.67;10.17;;;21.90;61.10;;;;;;4952090;28;20463;-81
2023/06/14 09:16:53;;;;;;;10.47;10.07;;;21.90;62.40;;;;;;4947177;28;20462;-82
2023/06/14 09:19:23;;;;;;;10.27;9.73;;;21.90;63.50;;;;;;4972026;28;20470;-82
2023/06/14 09:21:52;;;;;;;10.53;10.03;;;22.00;63.70;;;;;;4970580;28;20447;-83
2023/06/14 09:24:21;;;;;;;11.57;10.73;;;22.10;64.90;;;;;;4971840;28;20558;-82
2023/06/14 09:26:51;;;;;;;10.67;10.17;;;22.10;66.90;;;;;;4969308;28;20528;-82
2023/06/14 09:29:20;;;;;;;11.00;10.40;;;22.10;69.10;;;;;;4943227;28;20574;-81
2023/06/14 09:31:49;;;;;;;10.03;9.53;;;22.20;69.30;;;;;;4973466;28;20454;-82
2023/06/14 09:34:17;;;;;;;11.20;10.40;;;22.20;69.60;;;;;;4972486;28;20465;-80
2023/06/14 09:36:46;;;;;;;10.43;9.93;;;22.30;70.20;;;;;;4950729;28;20471;-82
2023/06/14 09:39:19;;;;;;;10.60;9.97;;;22.30;70.20;;;;;;4966610;28;20493;-83
2023/06/14 09:41:48;;;;;;;10.70;10.20;;;22.30;88.50;;;;;;4974123;28;20466;-82
2023/06/14 09:44:18;;;;;;;10.40;9.83;;;22.30;67.30;;;;;;4968375;28;20474;-82
2023/06/14 09:46:51;;;;;;;10.43;9.93;;;22.30;68.70;;;;;;4969311;28;20486;-82
2023/06/14 09:49:19;;;;;;;10.10;9.50;;;22.40;69.00;;;;;;4966895;28;20494;-83
2023/06/14 09:51:52;;;;;;;10.50;9.77;;;22.40;71.00;;;;;;4966902;28;20466;-82
2023/06/14 09:54:23;;;;;;;9.83;9.40;;;22.50;73.10;;;;;;4967634;28;20840;-81
2023/06/14 09:56:52;;;;;;;10.70;9.70;;;22.50;66.50;;;;;;4969692;28;21239;-80
2023/06/14 09:59:29;;;;;;;9.57;9.07;;;22.60;66.50;;;;;;4967783;28;20485;-82
2023/06/14 10:02:02;;;;;;;9.60;9.00;;;22.70;68.40;;;;;;4952298;28;20459;-80
2023/06/14 10:04:32;;;;;;;9.57;8.97;;;22.70;66.30;;;;;;4970807;28;20518;-82
2023/06/14 10:07:02;;;;;;;11.00;10.43;;;22.70;66.70;;;;;;4971033;28;20485;-82
2023/06/14 10:09:31;;;;;;;10.13;9.53;;;22.80;69.00;;;;;;4943118;28;20483;-81
2023/06/14 10:12:00;;;;;;;9.23;8.83;;;22.80;70.90;;;;;;4969424;28;20502;-82
2023/06/14 10:14:30;;;;;;;9.90;9.40;;;22.90;69.30;;;;;;4971235;28;20463;-82
2023/06/14 10:17:05;;;;;;;8.93;8.53;;;22.90;69.90;;;;;;4967973;28;20451;-83
2023/06/14 10:19:47;;;;;;;9.70;8.80;;;22.90;85.60;;;;;;4970091;28;20451;-83
2023/06/14 10:22:22;;;;;;;8.77;8.33;;;23.00;67.10;;;;;;4966361;28;21287;-83
2023/06/14 10:24:51;;;;;;;10.07;9.47;;;23.00;67.10;;;;;;4967516;28;20956;-82
2023/06/14 10:27:23;;;;;;;9.20;8.80;;;22.90;67.70;;;;;;4967889;28;20562;-81
2023/06/14 10:30:05;;;;;;;10.30;9.80;;;23.10;70.60;;;;;;4968890;28;20940;-82
2023/06/14 10:32:34;;;;;;;9.10;8.70;;;23.20;74.10;;;;;;4968851;28;20465;-82
2023/06/14 10:35:06;;;;;;;9.60;9.10;;;23.10;74.40;;;;;;4967045;28;20449;-81
2023/06/14 10:37:35;;;;;;;9.20;8.80;;;23.00;71.20;;;;;;4971219;28;20471;-81
2023/06/14 10:40:05;;;;;;;9.00;8.70;;;23.00;69.60;;;;;;4952971;28;21245;-82
2023/06/14 10:42:33;;;;;;;9.20;8.90;;;23.00;70.40;;;;;;4956018;28;20464;-82
2023/06/14 10:45:02;;;;;;;9.40;9.00;;;23.10;69.90;;;;;;4967913;28;20563;-82
2023/06/14 10:47:31;;;;;;;9.97;9.57;;;23.20;69.50;;;;;;4969810;28;21078;-82
2023/06/14 10:50:07;;;;;;;8.43;8.03;;;23.20;73.10;;;;;;4950221;28;20485;-82
2023/06/14 10:52:38;;;;;;;8.97;8.57;;;23.30;70.50;;;;;;4968450;28;20465;-82
2023/06/14 10:55:13;;;;;;;9.77;8.97;;;23.30;70.50;;;;;;4938573;28;20526;-82
2023/06/14 10:57:45;;;;;;;9.63;9.03;;;23.20;71.70;;;;;;4968717;28;20465;-82
2023/06/14 11:00:22;;;;;;;9.37;8.97;;;23.20;71.10;;;;;;4969575;28;20458;-82
2023/06/14 11:03:28;;;;;;;10.23;9.57;;;23.20;71.30;;;;;;4968981;28;21122;-82
2023/06/14 11:05:59;;;;;;;9.73;9.07;;;23.30;74.50;;;;;;4971985;28;20486;-83
2023/06/14 11:09:03;;;;;;;8.90;8.50;;;23.50;71.60;;;;;;4971542;28;20490;-81
2023/06/14 11:11:34;;;;;;;8.87;8.43;;;23.50;72.00;;;;;;4934816;29;20456;-81
2023/06/14 11:14:06;;;;;;;8.90;8.50;;;23.60;75.60;;;;;;4932842;29;20613;-82
2023/06/14 11:16:39;;;;;;;8.57;8.17;;;23.70;74.30;;;;;;4940925;28;20569;-81
2023/06/14 11:19:11;;;;;;;9.00;8.50;;;23.80;74.70;;;;;;4972294;28;20489;-82
2023/06/14 11:21:46;;;;;;;9.10;8.53;;;23.80;73.80;;;;;;4986394;28;20561;-83
2023/06/14 11:24:16;;;;;;;9.07;8.17;;;23.80;74.20;;;;;;4963876;28;20544;-82
2023/06/14 11:26:45;;;;;;;8.60;8.00;;;23.70;68.60;;;;;;4972957;28;20458;-83
2023/06/14 11:29:13;;;;;;;8.47;8.07;;;23.70;70.90;;;;;;4970817;28;20482;-81
2023/06/14 11:31:45;;;;;;;11.03;8.97;;;23.70;72.30;;;;;;4968328;28;21024;-82
2023/06/14 11:34:13;;;;;;;9.23;8.43;;;23.70;71.70;;;;;;4968821;28;20490;-82
2023/06/14 11:36:43;;;;;;;9.10;8.60;;;23.70;70.60;;;;;;4969854;28;21064;-83
2023/06/14 11:39:11;;;;;;;8.03;7.73;;;23.60;72.10;;;;;;4963266;28;20490;-82
2023/06/14 11:41:40;;;;;;;8.73;8.23;;;23.70;72.70;;;;;;4966279;28;20459;-83
2023/06/14 11:44:12;;;;;;;8.70;8.40;;;23.70;73.50;;;;;;4969987;28;21308;-81
2023/06/14 11:46:41;;;;;;;8.77;8.37;;;23.70;72.80;;;;;;4968511;28;20566;-82
2023/06/14 11:49:09;;;;;;;9.27;8.77;;;23.70;72.90;;;;;;4942171;28;20490;-82
2023/06/14 11:51:38;;;;;;;9.50;9.10;;;23.70;72.30;;;;;;4940717;28;20490;-83
2023/06/14 11:54:09;;;;;;;10.00;9.33;;;23.60;71.90;;;;;;4972465;28;20459;-87
2023/06/14 11:56:45;;;;;;;9.83;8.53;;;23.70;74.00;;;;;;4972443;28;20491;-85
2023/06/14 11:59:15;;;;;;;25.00;17.27;;;23.70;73.40;;;;;;4968884;28;20476;-85
2023/06/14 12:01:45;;;;;;;16.40;11.47;;;23.70;73.40;;;;;;4969497;28;20518;-85
2023/06/14 12:04:31;;;;;;;9.20;8.60;;;23.70;73.70;;;;;;4968601;28;20952;-85
2023/06/14 12:07:12;;;;;;;9.30;8.90;;;23.60;71.30;;;;;;4969755;28;20458;-85
2023/06/14 12:09:44;;;;;;;8.83;8.43;;;23.60;69.20;;;;;;4972124;28;20462;-85
2023/06/14 12:12:26;;;;;;;10.00;9.20;;;23.60;71.30;;;;;;4972610;28;20539;-84
2023/06/14 12:15:01;;;;;;;9.33;8.93;;;23.60;71.90;;;;;;4972359;28;20981;-85
2023/06/14 12:17:34;;;;;;;10.00;9.20;;;23.70;74.10;;;;;;4971463;28;21085;-85
2023/06/14 12:20:16;;;;;;;11.37;10.40;;;23.80;73.90;;;;;;4966498;28;20467;-85
2023/06/14 12:22:56;;;;;;;10.43;9.83;;;23.80;76.40;;;;;;4944813;28;20450;-86
2023/06/14 12:25:28;;;;;;;10.03;9.40;;;24.00;77.40;;;;;;4975238;28;20474;-85
2023/06/14 12:27:57;;;;;;;8.40;8.00;;;23.90;74.30;;;;;;4973935;28;20856;-85
2023/06/14 12:30:31;;;;;;;9.73;9.07;;;24.00;77.10;;;;;;4972902;28;20520;-85
2023/06/14 12:33:00;;;;;;;9.10;8.40;;;24.00;77.80;;;;;;4970459;28;20451;-85
2023/06/14 12:35:29;;;;;;;8.53;8.13;;;24.10;77.50;;;;;;4955963;28;20866;-86
2023/06/14 12:38:03;;;;;;;8.83;8.33;;;24.10;79.00;;;;;;4968150;28;20482;-86
2023/06/14 12:40:57;;;;;;;9.00;8.50;;;24.00;79.70;;;;;;4948836;28;20471;-86
2023/06/14 12:43:31;;;;;;;8.80;8.30;;;24.00;77.60;;;;;;4967343;28;21008;-84
2023/06/14 12:46:00;;;;;;;9.50;9.10;;;24.00;78.50;;;;;;4972257;28;20458;-83
2023/06/14 12:48:30;;;;;;;8.27;7.87;;;24.00;77.00;;;;;;4970064;28;20478;-85
2023/06/14 12:51:12;;;;;;;8.73;8.23;;;24.00;78.00;;;;;;4950967;28;20755;-85
2023/06/14 12:53:43;;;;;;;8.93;8.43;;;24.10;78.20;;;;;;4971258;28;20498;-85
2023/06/14 12:56:16;;;;;;;9.40;8.73;;;24.00;77.10;;;;;;4951095;28;20560;-85
2023/06/14 12:58:49;;;;;;;7.83;7.63;;;24.10;76.20;;;;;;4971221;28;20474;-84
2023/06/14 13:01:18;;;;;;;8.60;8.20;;;24.10;76.70;;;;;;4970585;28;20474;-84
2023/06/14 13:03:47;;;;;;;9.20;8.70;;;24.10;79.20;;;;;;4971776;28;20459;-86
2023/06/14 13:06:22;;;;;;;9.20;8.57;;;24.20;76.20;;;;;;4944168;28;20463;-84
2023/06/14 13:09:08;;;;;;;8.90;8.40;;;24.20;75.40;;;;;;4965271;28;20486;-85
2023/06/14 13:11:38;;;;;;;8.50;8.10;;;24.20;92.80;;;;;;4965808;28;20467;-87
2023/06/14 13:14:07;;;;;;;8.80;8.30;;;24.20;76.50;;;;;;4944837;28;20458;-87
2023/06/14 13:16:53;;;;;;;8.97;8.47;;;24.30;77.30;;;;;;4969378;28;20469;-85
2023/06/14 13:19:21;;;;;;;8.20;7.83;;;24.30;78.40;;;;;;4968222;28;20485;-86
2023/06/14 13:22:25;;;;;;;8.57;7.90;;;24.30;74.80;;;;;;4972168;28;20481;-85
2023/06/14 13:25:22;;;;;;;8.00;7.70;;;24.30;77.70;;;;;;4973178;28;20474;-85
2023/06/14 13:27:52;;;;;;;7.57;7.17;;;24.40;77.80;;;;;;4952883;28;20940;-85
2023/06/14 13:30:45;;;;;;;8.47;7.70;;;24.30;77.60;;;;;;4951639;28;20476;-87
2023/06/14 13:33:14;;;;;;;8.37;7.77;;;24.40;78.40;;;;;;4968102;28;20538;-85
2023/06/14 13:39:37;;;;;;;8.20;7.60;;;24.30;75.70;;;;;;4956818;28;20942;-85
2023/06/14 13:42:14;;;;;;;8.60;8.20;;;24.40;77.30;;;;;;4972232;28;20478;-85
2023/06/14 13:44:44;;;;;;;8.30;7.80;;;24.40;77.50;;;;;;4971751;28;20463;-85
2023/06/14 13:47:15;;;;;;;6.73;6.50;;;24.30;75.50;;;;;;4956204;28;20539;-86
2023/06/14 13:50:46;;;;;;;8.23;7.80;;;24.30;75.30;;;;;;4973835;28;20734;-86
2023/06/14 13:53:43;;;;;;;7.80;7.40;;;24.30;77.50;;;;;;4953185;28;20497;-85
2023/06/14 13:56:42;;;;;;;7.47;6.97;;;24.20;68.90;;;;;;4938976;28;20450;-87
2023/06/14 13:59:34;;;;;;;7.37;7.00;;;24.20;69.70;;;;;;4952438;28;20455;-87
2023/06/14 14:02:35;;;;;;;;;;;;;;;;;;;;;